Scroll for more >

River gauges, storages, and weirs in the Murray–Darling Basin

Type Locationsort descending River Water level Flow Volume Release Water temp Salinity Rainfall
River Gauge Albury (Union Bridge) Murray 1.57 m 20/07/2018 12:00 Not measured Not measured Not measured 9.3°C 20/07/2018 12:00 52.5 μS/cm 20/07/2018 12:00 Not measured Full data
River Gauge Balranald Murrumbidgee 1.35 m 20/07/2018 11:45 865 ML/Day 20/07/2018 11:45 Not measured Not measured 8.7°C 20/07/2018 11:45 148.4 μS/cm 20/07/2018 11:45 Not measured Full data
River Gauge Bandiana Kiewa 1.49 m 20/07/2018 11:45 1163 ML/Day 20/07/2018 11:45 Not measured Not measured 7.8°C 20/07/2018 11:45 31.5 μS/cm 20/07/2018 11:45 Not measured Full data
River Gauge Biggara Murray 0.48 m 20/07/2018 12:00 564 ML/Day 20/07/2018 12:00 Not measured Not measured 6.3°C 20/07/2018 12:00 51.6 μS/cm 20/07/2018 12:00 6.2 mm 20/07/2018 9:00 Full data
River Gauge Bringenbrong Bridge Murray 1.53 m 20/07/2018 12:00 3897 ML/Day 20/07/2018 12:00 Not measured Not measured Not measured Not measured Not measured Full data
River Gauge Burtundy Darling 0.62 m 20/07/2018 11:45 7 ML/Day 20/07/2018 11:45 Not measured Not measured 10.4°C 20/07/2018 11:45 702.5 μS/cm 20/07/2018 11:45 Not measured Full data
River Gauge Colemans Mitta 1.63 m 20/07/2018 12:15 1686 ML/Day 20/07/2018 12:15 Not measured Not measured 9.3°C 20/07/2018 11:45 43.6 μS/cm 20/07/2018 11:45 Not measured Full data
River Gauge Colignan Murray 2.55 m 20/07/2018 11:45 10842 ML/Day 20/07/2018 11:45 Not measured Not measured 9.0°C 20/07/2018 11:45 111.7 μS/cm 20/07/2018 11:45 Not measured Full data
River Gauge Corowa Murray 2.2 m 20/07/2018 12:00 9199 ML/Day 20/07/2018 12:00 Not measured Not measured 9.4°C 20/07/2018 12:00 46.6 μS/cm 20/07/2018 12:00 Not measured Full data
Storage Dartmouth Dam Mitta 479.32 m 20/07/2018 12:15 Not measured 3433 GL 20/07/2018 12:15 Not measured Not measured Not measured Not measured Full data
River Gauge Doctors Point Murray 2.56 m 20/07/2018 12:00 10201 ML/Day 20/07/2018 12:00 Not measured Not measured 9.6°C 20/07/2018 12:00 49.1 μS/cm 20/07/2018 12:00 Not measured Full data
River Gauge Echuca Wharf Murray 86.61 m 20/07/2018 10:45 Not measured Not measured Not measured Not measured Not measured Not measured Full data
River Gauge Edward Escape Wakool -1.21 m 20/07/2018 11:45 1 ML/Day 13/07/2018 7:45 Not measured Not measured 8.5°C 20/07/2018 11:45 22.4 μS/cm 20/07/2018 11:45 Not measured Full data
River Gauge Edward River Offtake Murray 1.99 m 20/07/2018 12:00 1017 ML/Day 20/07/2018 12:00 Not measured Not measured 8.7°C 20/07/2018 11:45 47.5 μS/cm 20/07/2018 11:45 Not measured Full data
Weirs Euston Weir Downstream Murray 43.85 m 20/07/2018 11:45 10786 ML/Day 20/07/2018 11:45 Not measured Not measured 8.7°C 20/07/2018 11:45 118.0 μS/cm 20/07/2018 11:45 Not measured Full data
Weirs Euston Weir Upstream Murray 47.23 m 20/07/2018 8:45 Not measured 32 GL 20/07/2018 7:45 Not measured Not measured Not measured 0.0 mm 19/07/2018 9:00 Full data
River Gauge Flow to South Australia Murray Not measured Not measured Not measured 10671.4 ML/d20/07/2018 7:45 Not measured Not measured Not measured Full data
River Gauge Frenchman Creek Murray 27.35 m 20/07/2018 7:45 Not measured Not measured 1761.0 ML/d20/07/2018 7:45 Not measured Not measured Not measured Full data
River Gauge Gulpa Creek Offtake Murray 2.41 m 20/07/2018 11:45 303 ML/Day 20/07/2018 11:45 Not measured Not measured Not measured Not measured Not measured Full data
River Gauge Hinnomunjie Mitta 0.92 m 20/07/2018 11:45 1016 ML/Day 20/07/2018 11:45 Not measured Not measured 5.4°C 20/07/2018 11:45 28.4 μS/cm 20/07/2018 11:45 10.0 mm 20/07/2018 9:00 Full data
Storage Hume Dam Murray 182.02 m 20/07/2018 12:15 Not measured 1379 GL 20/07/2018 12:15 7800.0 ML/d20/07/2018 8:00 Not measured Not measured 3.0 mm 20/07/2018 9:00 Full data
River Gauge Jingellic Murray 1.71 m 20/07/2018 11:45 4555 ML/Day 20/07/2018 11:45 Not measured Not measured 7.1°C 20/07/2018 11:45 30.6 μS/cm 20/07/2018 11:45 4.0 mm 20/07/2018 9:00 Full data
River Gauge Kerang Loddon 0.41 m 20/07/2018 11:45 295 ML/Day 20/07/2018 11:45 Not measured Not measured 8.2°C 20/07/2018 11:45 406.5 μS/cm 20/07/2018 11:45 Not measured Full data
River Gauge Lake Albert Murray 0.81 m 20/07/2018 5:45 Not measured 281 GL 20/07/2018 5:45 Not measured Not measured Not measured Not measured Full data
River Gauge Lake Alexandrina Murray 0.72 m 20/07/2018 5:45 Not measured 1590 GL 20/07/2018 5:45 Not measured Not measured 696.7 μS/cm 20/07/2018 10:45 Not measured Full data
Storage Lake Victoria Murray 24.21 m 20/07/2018 10:45 Not measured 365 GL 20/07/2018 10:45 Not measured 9.8°C 20/07/2018 10:45 169.5 μS/cm 20/07/2018 10:45 Not measured Full data
Weirs Lock 1 Downstream Murray 0.97 m 20/07/2018 10:45 Not measured Not measured 9427.4 ML/d20/07/2018 7:45 Not measured Not measured Not measured Full data
Weirs Lock 1 Upstream Murray 3.21 m 20/07/2018 10:45 Not measured Not measured Not measured 10.9°C 20/07/2018 10:45 380.2 μS/cm 20/07/2018 10:45 Not measured Full data
Weirs Lock 2 Downstream Murray 3.68 m 20/07/2018 10:45 Not measured Not measured Not measured Not measured Not measured Not measured Full data
Weirs Lock 2 Upstream Murray 6.14 m 20/07/2018 10:45 Not measured Not measured Not measured 10.6°C 20/07/2018 10:45 291.8 μS/cm 20/07/2018 10:45 Not measured Full data
Weirs Lock 3 Downstream Murray 6.6 m 20/07/2018 10:45 Not measured Not measured Not measured Not measured Not measured Not measured Full data
Weirs Lock 3 Upstream Murray 9.81 m 20/07/2018 10:45 Not measured Not measured Not measured Not measured Not measured Not measured Full data
Weirs Lock 4 Downstream Murray 10.95 m 20/07/2018 10:45 Not measured Not measured Not measured Not measured Not measured Not measured Full data
Weirs Lock 4 Upstream Murray 13.23 m 20/07/2018 10:45 Not measured Not measured Not measured Not measured Not measured Not measured Full data
Weirs Lock 5 Downstream Murray 13.58 m 20/07/2018 10:45 Not measured Not measured Not measured Not measured Not measured Not measured Full data
Weirs Lock 5 Upstream Murray 16.42 m 20/07/2018 10:45 Not measured Not measured Not measured 10.5°C 20/07/2018 10:45 137.6 μS/cm 20/07/2018 10:45 Not measured Full data
Weirs Lock 6 Downstream Murray 16.7 m 20/07/2018 10:45 Not measured Not measured Not measured Not measured Not measured Not measured Full data
Weirs Lock 6 Upstream Murray 19.3 m 20/07/2018 10:45 Not measured Not measured Not measured 10.4°C 20/07/2018 10:45 139.3 μS/cm 20/07/2018 10:45 Not measured Full data
Weirs Lock 7 Downstream Murray 20.94 m 20/07/2018 10:45 Not measured Not measured Not measured Not measured Not measured Not measured Full data
Weirs Lock 7 Upstream Murray 22.06 m 20/07/2018 10:45 Not measured Not measured Not measured 10.3°C 20/07/2018 10:45 136.9 μS/cm 20/07/2018 10:45 Not measured Full data
Weirs Lock 8 Upstream Murray 24.36 m 20/07/2018 10:45 Not measured Not measured Not measured 10.3°C 20/07/2018 10:45 134.4 μS/cm 20/07/2018 10:45 Not measured Full data
Weirs Lock 9 Downstream Murray 24.55 m 20/07/2018 10:45 Not measured Not measured Not measured Not measured Not measured Not measured Full data
Weirs Lock 9 Upstream Murray 27.34 m 20/07/2018 10:45 Not measured Not measured Not measured 10.2°C 20/07/2018 10:45 126.5 μS/cm 20/07/2018 10:45 Not measured Full data
River Gauge McCoy Bridge Goulburn 2.48 m 20/07/2018 11:45 2818 ML/Day 20/07/2018 11:45 Not measured Not measured 8.9°C 20/07/2018 11:45 54.4 μS/cm 20/07/2018 11:45 Not measured Full data
Storage Menindee Lakes Darling Not measured Not measured 202 GL 20/07/2018 7:45 Not measured Not measured Not measured Not measured Full data
Weirs Mildura Weir downstream Murray 31.17 m 20/07/2018 11:45 Not measured Not measured Not measured 10.2°C 20/07/2018 11:45 189.5 μS/cm 20/07/2018 11:45 Not measured Full data
River Gauge Morgan Downstream Murray Not measured Not measured Not measured 8206.0 ML/d20/07/2018 10:45 Not measured 323.9 μS/cm 20/07/2018 9:45 Not measured Full data
River Gauge Mulwala Canal Murray Not measured Not measured Not measured 0.0 ML/d20/07/2018 7:45 Not measured Not measured Not measured Full data
River Gauge Mundoo Barrage Murray 0.57 m 20/07/2018 7:45 Not measured Not measured Not measured Not measured Not measured Not measured Full data
River Gauge Murray Bridge Murray 0.76 m 20/07/2018 10:45 Not measured Not measured Not measured 11.0°C 20/07/2018 10:45 415.0 μS/cm 20/07/2018 10:45 Not measured Full data
River Gauge Peechelba Ovens 127.24 m 20/07/2018 11:45 1663 ML/Day 20/07/2018 11:45 Not measured Not measured 7.5°C 20/07/2018 11:45 42.9 μS/cm 20/07/2018 11:45 Not measured Full data
River Gauge Pinegrove Murray 1.15 m 20/07/2018 12:00 281 ML/Day 20/07/2018 12:00 Not measured Not measured 6.8°C 20/07/2018 12:00 86.7 μS/cm 20/07/2018 12:00 2.2 mm 20/07/2018 9:00 Full data
River Gauge Rochester Campaspe 1.74 m 20/07/2018 11:45 99 ML/Day 20/07/2018 11:45 Not measured Not measured 5.5°C 20/07/2018 11:45 494.9 μS/cm 20/07/2018 11:45 3.0 mm 20/07/2018 9:00 Full data
River Gauge Rufus River Murray 21.02 m 20/07/2018 7:45 Not measured Not measured 1950.0 ML/d20/07/2018 7:45 Not measured 188.4 μS/cm 20/07/2018 9:45 Not measured Full data
Weirs Steven's Weir Downstream Wakool 0.88 m 20/07/2018 11:45 587 ML/Day 20/07/2018 11:45 Not measured Not measured 8.8°C 20/07/2018 11:45 62.0 μS/cm 20/07/2018 11:45 0.0 mm 2/05/2018 9:00 Full data
Weirs Steven's Weir Upstream Wakool 1.89 m 20/07/2018 12:00 Not measured Not measured Not measured Not measured Not measured Not measured Full data
River Gauge Stoney Crossing Murray 1.3 m 20/07/2018 11:45 245 ML/Day 20/07/2018 11:45 Not measured 233.9 ML/d20/07/2018 7:45 9.0°C 20/07/2018 11:45 341.2 μS/cm 20/07/2018 11:45 Not measured Full data
River Gauge Swan Hill Murray 1.47 m 20/07/2018 11:45 7807 ML/Day 20/07/2018 11:45 Not measured Not measured 8.3°C 20/07/2018 11:45 100.8 μS/cm 20/07/2018 11:45 Not measured Full data
River Gauge Tallandoon Mitta 2.04 m 20/07/2018 11:45 2238 ML/Day 20/07/2018 11:45 Not measured Not measured 9.2°C 20/07/2018 11:45 39.9 μS/cm 20/07/2018 11:45 Not measured Full data
River Gauge Tauwitchere Barrage Murray 0.66 m 20/07/2018 10:45 Not measured Not measured Not measured Not measured Not measured Not measured Full data
River Gauge Tocumwal Murray 1.77 m 20/07/2018 11:45 6663 ML/Day 20/07/2018 11:45 Not measured Not measured 7.7°C 20/07/2018 11:45 58.0 μS/cm 20/07/2018 11:45 Not measured Full data
River Gauge Torrumbarry Headworks Murray 84.41 m 20/07/2018 11:45 Not measured Not measured 1305.3 ML/d20/07/2018 11:45 Not measured Not measured Not measured Full data
Weirs Torrumbarry Weir Downstream Murray 1.91 m 20/07/2018 11:45 5227 ML/Day 20/07/2018 11:45 Not measured Not measured 8.5°C 20/07/2018 11:45 70.7 μS/cm 20/07/2018 11:45 Not measured Full data
Weirs Torrumbarry Weir Upstream Murray 85.82 m 20/07/2018 11:30 Not measured 35 GL 20/07/2018 8:45 Not measured 8.3°C 20/07/2018 8:00 71.2 μS/cm 20/07/2018 7:45 1.0 mm 20/07/2018 9:00 Full data
River Gauge Wakool Canal Wakool -2.65 m 20/07/2018 10:45 Not measured Not measured 0.0 ML/d18/07/2018 8:45 Not measured Not measured Not measured Full data
River Gauge Wakool Junction Murray 3.45 m 20/07/2018 11:45 9653 ML/Day 20/07/2018 11:45 Not measured Not measured 8.6°C 20/07/2018 11:45 87.8 μS/cm 20/07/2018 11:45 Not measured Full data
River Gauge Weir 32 Upstream Darling 1.37 m 20/07/2018 11:45 238 ML/Day 20/07/2018 11:45 Not measured Not measured 10.3°C 20/07/2018 11:45 787.8 μS/cm 20/07/2018 11:45 Not measured Full data
Weirs Wentworth Weir Murray 27.86 m 20/07/2018 11:45 Not measured Not measured 10557.0 ML/d20/07/2018 8:00 Not measured 124.0 μS/cm 20/07/2018 7:45 0.0 mm 19/07/2018 9:00 Full data
River Gauge Wilcania Darling 0.31 m 20/07/2018 11:45 135 ML/Day 20/07/2018 11:45 Not measured Not measured 11.2°C 20/07/2018 12:00 1167.3 μS/cm 20/07/2018 11:45 Not measured Full data
River Gauge Yarrawonga Main Channel Murray 122.79 m 20/07/2018 11:45 Not measured Not measured 0.0 ML/d20/07/2018 11:45 Not measured Not measured Not measured Full data
Weirs Yarrawonga Weir Downstream Murray 1.18 m 20/07/2018 12:00 6673 ML/Day 20/07/2018 12:00 Not measured Not measured 8.7°C 20/07/2018 12:00 43.3 μS/cm 20/07/2018 12:00 Not measured Full data
Weirs Yarrawonga Weir Upstream Murray 121.65 m 20/07/2018 7:45 Not measured Not measured Not measured Not measured Not measured 8.2 mm 20/07/2018 9:00 Full data